Time;durP1;ratioP1;P1;durP2;ratioP2;P2;SDS_P1;SDS_P2;PMS_P1;PMS_P2;Temp;Humidity;BMP_temperature;BMP_pressure;BME280_temperature;BME280_humidity;BME280_pressure;Samples;Min_cycle;Max_cycle;Signal;HPM_P1;HPM_P2
2022/11/02 00:00:01;;;;;;;4.90;1.50;;;;;;;;;;1036178;28;20033;-76
2022/11/02 00:00:32;;;;;;;2.10;1.08;;;;;;;;;;1039537;28;20100;-76
2022/11/02 00:01:19;;;;;;;10.40;2.30;;;;;;;;;;1038631;28;20025;-76
2022/11/02 00:01:49;;;;;;;4.20;1.98;;;;;;;;;;1039528;28;20055;-76
2022/11/02 00:02:20;;;;;;;3.45;1.67;;;;;;;;;;1040092;28;20045;-76
2022/11/02 00:02:50;;;;;;;4.28;1.45;;;;;;;;;;1040004;28;20036;-76
2022/11/02 00:03:21;;;;;;;4.10;1.20;;;;;;;;;;1039881;28;20017;-76
2022/11/02 00:03:51;;;;;;;5.18;1.88;;;;;;;;;;1041837;28;20021;-76
2022/11/02 00:04:22;;;;;;;2.10;0.90;;;;;;;;;;1041488;28;20017;-76
2022/11/02 00:04:52;;;;;;;3.42;1.50;;;;;;;;;;1041487;28;20393;-76
2022/11/02 00:05:23;;;;;;;4.43;1.48;;;;;;;;;;1041593;28;20482;-76
2022/11/02 00:05:54;;;;;;;3.33;1.33;;;;;;;;;;1038292;28;20033;-76
2022/11/02 00:06:24;;;;;;;5.63;1.30;;;;;;;;;;1039640;28;20519;-76
2022/11/02 00:06:55;;;;;;;4.60;2.33;;;;;;;;;;1039714;28;20048;-76
2022/11/02 00:07:25;;;;;;;1.90;1.70;;;;;;;;;;1038467;28;20018;-76
2022/11/02 00:07:56;;;;;;;7.28;1.77;;;;;;;;;;1039506;28;20041;-76
2022/11/02 00:08:27;;;;;;;8.93;1.73;;;;;;;;;;1039733;28;20044;-76
2022/11/02 00:08:57;;;;;;;8.20;1.52;;;;;;;;;;1035508;28;20060;-76
2022/11/02 00:09:28;;;;;;;4.45;1.60;;;;;;;;;;1035566;28;20108;-76
2022/11/02 00:09:58;;;;;;;6.82;1.60;;;;;;;;;;1039848;28;20572;-76
2022/11/02 00:10:29;;;;;;;2.78;0.95;;;;;;;;;;1039760;28;20041;-76
2022/11/02 00:11:00;;;;;;;2.17;1.17;;;;;;;;;;1039533;28;20119;-77
2022/11/02 00:11:30;;;;;;;2.83;1.10;;;;;;;;;;1039536;28;20394;-76
2022/11/02 00:12:01;;;;;;;5.10;1.65;;;;;;;;;;1039839;28;20416;-76
2022/11/02 00:12:31;;;;;;;7.28;2.42;;;;;;;;;;1039605;28;20485;-76
2022/11/02 00:13:02;;;;;;;6.55;2.22;;;;;;;;;;1039630;28;20025;-76
2022/11/02 00:13:32;;;;;;;8.70;1.70;;;;;;;;;;1038371;28;20021;-76
2022/11/02 00:14:03;;;;;;;4.53;2.03;;;;;;;;;;1035610;28;20049;-76
2022/11/02 00:14:34;;;;;;;13.98;1.65;;;;;;;;;;1035436;28;20018;-76
2022/11/02 00:15:05;;;;;;;7.53;2.38;;;;;;;;;;1039784;28;20029;-76
2022/11/02 00:15:36;;;;;;;2.15;1.27;;;;;;;;;;1035247;28;20024;-76
2022/11/02 00:16:09;;;;;;;4.95;2.08;;;;;;;;;;1039091;28;20065;-76
2022/11/02 00:16:40;;;;;;;7.07;2.08;;;;;;;;;;1039521;28;20025;-76
2022/11/02 00:17:10;;;;;;;4.25;1.52;;;;;;;;;;1037610;28;20048;-77
2022/11/02 00:17:42;;;;;;;4.55;1.52;;;;;;;;;;1043770;28;19999;-76
2022/11/02 00:18:13;;;;;;;4.40;2.10;;;;;;;;;;1040323;28;20024;-76
2022/11/02 00:18:45;;;;;;;8.65;1.70;;;;;;;;;;1037698;28;20088;-76
2022/11/02 00:19:16;;;;;;;5.18;2.15;;;;;;;;;;1041615;28;20013;-76
2022/11/02 00:19:46;;;;;;;6.00;1.55;;;;;;;;;;1039590;28;20116;-77
2022/11/02 00:20:18;;;;;;;2.10;1.10;;;;;;;;;;1039638;28;20025;-76
2022/11/02 00:20:49;;;;;;;3.53;1.52;;;;;;;;;;1039573;28;20072;-76
2022/11/02 00:21:20;;;;;;;2.85;1.35;;;;;;;;;;1039344;28;20100;-76
2022/11/02 00:21:51;;;;;;;3.38;1.40;;;;;;;;;;1039828;28;20036;-76
2022/11/02 00:22:22;;;;;;;3.15;1.15;;;;;;;;;;1039513;28;20040;-76
2022/11/02 00:22:55;;;;;;;1.75;1.35;;;;;;;;;;1038350;28;20072;-76
2022/11/02 00:23:25;;;;;;;3.47;1.67;;;;;;;;;;1035405;28;20017;-76
2022/11/02 00:23:57;;;;;;;1.67;0.98;;;;;;;;;;1035976;28;20022;-76
2022/11/02 00:24:28;;;;;;;4.82;1.35;;;;;;;;;;1039594;28;20021;-76
2022/11/02 00:24:59;;;;;;;2.17;1.10;;;;;;;;;;1037997;28;20428;-76
2022/11/02 00:25:30;;;;;;;3.15;1.02;;;;;;;;;;1040184;28;20616;-76
2022/11/02 00:26:01;;;;;;;4.22;1.63;;;;;;;;;;1035304;28;20118;-76
2022/11/02 00:26:33;;;;;;;2.67;1.42;;;;;;;;;;1035383;28;20482;-76
2022/11/02 00:27:04;;;;;;;1.45;1.08;;;;;;;;;;1035467;28;20032;-76
2022/11/02 00:27:34;;;;;;;3.70;1.65;;;;;;;;;;1031580;28;20029;-77
2022/11/02 00:28:05;;;;;;;9.60;1.20;;;;;;;;;;1035706;28;20555;-76
2022/11/02 00:28:36;;;;;;;3.42;1.38;;;;;;;;;;1031408;28;20194;-76
2022/11/02 00:29:07;;;;;;;2.15;1.50;;;;;;;;;;1035828;28;20061;-76
2022/11/02 00:29:37;;;;;;;2.67;1.55;;;;;;;;;;1035212;28;20036;-77
2022/11/02 00:30:08;;;;;;;5.40;1.90;;;;;;;;;;1031727;28;20105;-77
2022/11/02 00:30:39;;;;;;;2.63;1.30;;;;;;;;;;1035389;28;20116;-77
2022/11/02 00:31:09;;;;;;;4.38;1.73;;;;;;;;;;1035535;28;20403;-77
2022/11/02 00:31:40;;;;;;;4.93;1.70;;;;;;;;;;1035490;28;20108;-77
2022/11/02 00:32:10;;;;;;;4.00;1.60;;;;;;;;;;1035548;28;20101;-77
2022/11/02 00:32:41;;;;;;;3.90;1.65;;;;;;;;;;1035045;28;20013;-77
2022/11/02 00:33:12;;;;;;;3.38;1.65;;;;;;;;;;1035521;28;20145;-77
2022/11/02 00:33:42;;;;;;;3.90;1.88;;;;;;;;;;1039530;28;20371;-77
2022/11/02 00:34:13;;;;;;;2.17;1.23;;;;;;;;;;1039985;28;20118;-77
2022/11/02 00:34:43;;;;;;;5.13;1.17;;;;;;;;;;1039552;28;20401;-77
2022/11/02 00:35:14;;;;;;;4.22;1.60;;;;;;;;;;1039630;28;20561;-77
2022/11/02 00:35:45;;;;;;;6.75;1.75;;;;;;;;;;1039491;28;20504;-76
2022/11/02 00:36:16;;;;;;;4.03;1.98;;;;;;;;;;1038861;28;20025;-76
2022/11/02 00:36:46;;;;;;;3.28;1.45;;;;;;;;;;1039705;28;20434;-77
2022/11/02 00:37:17;;;;;;;3.58;1.13;;;;;;;;;;1038775;28;20028;-77
2022/11/02 00:37:48;;;;;;;1.60;0.90;;;;;;;;;;1039361;28;20525;-76
2022/11/02 00:38:18;;;;;;;4.05;1.20;;;;;;;;;;1039511;28;20021;-76
2022/11/02 00:38:49;;;;;;;2.00;1.27;;;;;;;;;;1039360;28;20021;-76
2022/11/02 00:39:19;;;;;;;3.17;1.40;;;;;;;;;;1039246;28;20083;-76
2022/11/02 00:39:50;;;;;;;6.10;1.00;;;;;;;;;;1039946;28;20029;-76
2022/11/02 00:40:20;;;;;;;3.70;0.90;;;;;;;;;;1039784;28;20068;-76
2022/11/02 00:40:51;;;;;;;4.43;1.13;;;;;;;;;;1043411;28;20059;-76
2022/11/02 00:41:22;;;;;;;2.10;1.27;;;;;;;;;;1039379;28;20041;-76
2022/11/02 00:41:52;;;;;;;5.45;1.05;;;;;;;;;;1039505;28;20517;-76
2022/11/02 00:42:23;;;;;;;2.40;0.77;;;;;;;;;;1039464;28;20087;-76
2022/11/02 00:42:53;;;;;;;1.90;0.73;;;;;;;;;;1033408;28;20117;-76
2022/11/02 00:43:24;;;;;;;2.60;1.30;;;;;;;;;;1035393;28;20076;-76
2022/11/02 00:43:54;;;;;;;3.97;1.10;;;;;;;;;;1039564;28;20761;-76
2022/11/02 00:44:25;;;;;;;4.70;1.35;;;;;;;;;;1039630;28;20021;-76
2022/11/02 00:44:56;;;;;;;1.77;0.80;;;;;;;;;;1039438;28;20017;-76
2022/11/02 00:45:26;;;;;;;1.52;0.93;;;;;;;;;;1039404;28;20095;-76
2022/11/02 00:45:57;;;;;;;5.18;1.35;;;;;;;;;;1035209;28;20030;-76
2022/11/02 00:46:28;;;;;;;0.85;0.82;;;;;;;;;;1035595;28;20568;-76
2022/11/02 00:46:58;;;;;;;3.90;1.08;;;;;;;;;;1035271;28;20073;-76
2022/11/02 00:47:29;;;;;;;3.75;0.95;;;;;;;;;;1035527;28;20025;-76
2022/11/02 00:48:00;;;;;;;2.55;1.27;;;;;;;;;;1039575;28;20473;-76
2022/11/02 00:48:30;;;;;;;4.20;2.13;;;;;;;;;;1039553;28;20068;-76
2022/11/02 00:49:01;;;;;;;2.95;1.52;;;;;;;;;;1039936;28;20103;-76
2022/11/02 00:49:31;;;;;;;1.95;1.10;;;;;;;;;;1038854;28;20053;-76
2022/11/02 00:50:02;;;;;;;2.58;1.23;;;;;;;;;;1039573;28;20025;-76
2022/11/02 00:50:33;;;;;;;2.17;1.38;;;;;;;;;;1035265;28;20053;-76
2022/11/02 00:51:03;;;;;;;2.08;1.40;;;;;;;;;;1035534;28;20105;-76
2022/11/02 00:51:34;;;;;;;4.38;1.20;;;;;;;;;;1035449;28;20079;-76
2022/11/02 00:52:05;;;;;;;2.97;0.95;;;;;;;;;;1039628;28;20607;-76
2022/11/02 00:52:38;;;;;;;3.65;1.00;;;;;;;;;;1038904;28;20099;-76
2022/11/02 00:53:08;;;;;;;1.83;1.05;;;;;;;;;;1038806;28;20016;-76
2022/11/02 00:53:39;;;;;;;4.13;1.00;;;;;;;;;;1039070;28;20096;-76
2022/11/02 00:54:09;;;;;;;1.52;0.93;;;;;;;;;;1039520;28;20052;-76
2022/11/02 00:54:40;;;;;;;0.93;0.68;;;;;;;;;;1039271;28;20064;-76
2022/11/02 00:55:11;;;;;;;3.58;1.55;;;;;;;;;;1039587;28;20041;-76
2022/11/02 00:55:42;;;;;;;5.20;1.75;;;;;;;;;;1039461;28;20362;-76
2022/11/02 00:56:12;;;;;;;2.00;0.95;;;;;;;;;;1039692;28;20014;-76
2022/11/02 00:56:43;;;;;;;2.22;1.23;;;;;;;;;;1039664;28;20033;-76
2022/11/02 00:57:13;;;;;;;2.90;1.38;;;;;;;;;;1039781;28;20018;-77
2022/11/02 00:57:44;;;;;;;2.80;1.08;;;;;;;;;;1039773;28;20051;-77
2022/11/02 00:58:14;;;;;;;3.58;1.48;;;;;;;;;;1039827;28;20806;-76
2022/11/02 00:58:45;;;;;;;3.53;1.35;;;;;;;;;;1039773;28;20021;-76
2022/11/02 00:59:15;;;;;;;3.55;1.38;;;;;;;;;;1039801;28;20120;-76
2022/11/02 00:59:46;;;;;;;2.40;1.20;;;;;;;;;;1039753;28;20025;-76
2022/11/02 01:00:17;;;;;;;4.82;1.35;;;;;;;;;;1039452;28;20009;-76
2022/11/02 01:00:47;;;;;;;13.55;1.23;;;;;;;;;;1039852;28;20022;-76
2022/11/02 01:01:18;;;;;;;4.07;1.67;;;;;;;;;;1039587;28;20116;-77
2022/11/02 01:01:48;;;;;;;7.82;1.73;;;;;;;;;;1039786;28;20548;-77
2022/11/02 01:02:19;;;;;;;2.38;1.33;;;;;;;;;;1039389;28;20481;-76
2022/11/02 01:02:49;;;;;;;1.73;0.90;;;;;;;;;;1035362;28;20445;-76
2022/11/02 01:03:20;;;;;;;3.50;1.02;;;;;;;;;;1035246;28;20567;-76
2022/11/02 01:03:51;;;;;;;2.13;1.40;;;;;;;;;;1035550;28;20057;-76
2022/11/02 01:04:21;;;;;;;2.60;1.90;;;;;;;;;;1039355;28;20059;-77
2022/11/02 01:04:52;;;;;;;5.70;1.48;;;;;;;;;;1039731;28;20390;-77
2022/11/02 01:05:22;;;;;;;6.30;1.73;;;;;;;;;;1039671;28;20013;-77
2022/11/02 01:05:53;;;;;;;3.85;1.52;;;;;;;;;;1039647;28;20025;-77
2022/11/02 01:06:23;;;;;;;2.97;1.27;;;;;;;;;;1039497;28;20112;-77
2022/11/02 01:06:54;;;;;;;2.78;1.23;;;;;;;;;;1039821;28;20023;-76
2022/11/02 01:07:26;;;;;;;3.88;1.35;;;;;;;;;;1043210;28;20056;-77
2022/11/02 01:07:57;;;;;;;3.50;1.45;;;;;;;;;;1039250;28;20025;-77
2022/11/02 01:08:28;;;;;;;2.28;1.23;;;;;;;;;;1039078;28;20030;-77
2022/11/02 01:08:59;;;;;;;6.35;1.77;;;;;;;;;;1039583;28;20501;-77
2022/11/02 01:09:30;;;;;;;15.50;4.38;;;;;;;;;;1039172;28;20121;-77
2022/11/02 01:10:00;;;;;;;31.60;7.60;;;;;;;;;;1039829;28;20094;-77
2022/11/02 01:10:31;;;;;;;30.45;10.20;;;;;;;;;;1039360;28;20059;-77
2022/11/02 01:11:12;;;;;;;35.30;9.35;;;;;;;;;;1039409;28;20116;-77
2022/11/02 01:11:43;;;;;;;26.33;8.50;;;;;;;;;;1038738;28;20132;-77
2022/11/02 01:12:14;;;;;;;22.35;7.30;;;;;;;;;;1032717;28;20027;-77
2022/11/02 01:12:44;;;;;;;17.05;6.20;;;;;;;;;;1035363;28;20584;-77
2022/11/02 01:13:15;;;;;;;13.88;3.28;;;;;;;;;;1035307;28;20022;-77
2022/11/02 01:13:46;;;;;;;14.35;3.88;;;;;;;;;;1031369;28;20026;-77
2022/11/02 01:14:17;;;;;;;11.50;3.42;;;;;;;;;;1039492;28;20115;-77
2022/11/02 01:14:48;;;;;;;11.68;3.72;;;;;;;;;;1038306;28;20030;-77
2022/11/02 01:15:19;;;;;;;10.13;3.38;;;;;;;;;;1039204;28;20678;-77
2022/11/02 01:15:49;;;;;;;19.55;4.00;;;;;;;;;;1039604;28;20025;-77
2022/11/02 01:16:20;;;;;;;11.00;4.25;;;;;;;;;;1039464;28;20179;-76
2022/11/02 01:16:51;;;;;;;9.32;4.00;;;;;;;;;;1039526;28;20477;-78
2022/11/02 01:17:21;;;;;;;8.52;2.95;;;;;;;;;;1038593;28;20025;-77
2022/11/02 01:17:52;;;;;;;13.93;5.35;;;;;;;;;;1039636;28;20021;-77
2022/11/02 01:18:22;;;;;;;15.90;5.22;;;;;;;;;;1039573;28;20056;-77
2022/11/02 01:18:54;;;;;;;20.83;7.18;;;;;;;;;;1038768;28;20111;-78
2022/11/02 01:19:25;;;;;;;19.13;5.88;;;;;;;;;;1039194;28;20021;-78
2022/11/02 01:19:56;;;;;;;51.63;21.55;;;;;;;;;;1035040;28;20521;-77
2022/11/02 01:20:27;;;;;;;53.65;21.05;;;;;;;;;;1035633;28;20518;-77
2022/11/02 01:20:58;;;;;;;46.40;17.35;;;;;;;;;;1034285;28;20057;-77
2022/11/02 01:21:29;;;;;;;24.45;10.40;;;;;;;;;;1035418;28;20026;-77
2022/11/02 01:22:00;;;;;;;27.67;10.32;;;;;;;;;;1034970;28;20202;-77
2022/11/02 01:22:31;;;;;;;12.23;5.30;;;;;;;;;;1031420;28;20064;-77
2022/11/02 01:23:01;;;;;;;10.48;1.50;;;;;;;;;;1031020;28;20095;-77
2022/11/02 01:23:32;;;;;;;8.23;3.38;;;;;;;;;;1034458;28;20026;-79
2022/11/02 01:24:03;;;;;;;3.47;1.90;;;;;;;;;;1040097;28;20025;-77
2022/11/02 01:24:34;;;;;;;2.22;1.08;;;;;;;;;;1039603;28;20496;-77
2022/11/02 01:25:05;;;;;;;6.82;1.80;;;;;;;;;;1038489;28;20060;-77
2022/11/02 01:25:37;;;;;;;3.38;1.95;;;;;;;;;;1032501;28;20430;-77
2022/11/02 01:26:08;;;;;;;7.03;1.85;;;;;;;;;;1035000;28;20449;-78
2022/11/02 01:26:39;;;;;;;7.05;2.75;;;;;;;;;;1035333;28;20022;-78
2022/11/02 01:27:11;;;;;;;6.20;2.28;;;;;;;;;;1040738;28;20381;-78
2022/11/02 01:27:42;;;;;;;3.92;1.77;;;;;;;;;;1039069;28;20063;-78
2022/11/02 01:28:12;;;;;;;10.45;4.60;;;;;;;;;;1035164;28;20028;-78
2022/11/02 01:28:43;;;;;;;15.85;6.90;;;;;;;;;;1033504;28;20032;-77
2022/11/02 01:29:13;;;;;;;17.17;6.97;;;;;;;;;;1034023;28;20121;-78
2022/11/02 01:29:44;;;;;;;18.75;8.07;;;;;;;;;;1038833;28;20041;-78
2022/11/02 01:30:15;;;;;;;15.05;5.85;;;;;;;;;;1039419;28;20029;-78
2022/11/02 01:30:46;;;;;;;23.77;6.43;;;;;;;;;;1039826;28;20418;-78
2022/11/02 01:31:17;;;;;;;15.18;5.72;;;;;;;;;;1035203;28;20622;-79
2022/11/02 01:31:48;;;;;;;26.17;8.93;;;;;;;;;;1031446;28;20413;-78
2022/11/02 01:32:18;;;;;;;35.42;8.02;;;;;;;;;;1034772;28;20053;-78
2022/11/02 01:32:49;;;;;;;33.70;8.02;;;;;;;;;;1030115;28;20026;-78
2022/11/02 01:33:20;;;;;;;26.70;6.28;;;;;;;;;;1033387;28;20101;-77
2022/11/02 01:33:50;;;;;;;23.40;6.20;;;;;;;;;;1039339;28;20029;-78
2022/11/02 01:34:21;;;;;;;31.33;9.07;;;;;;;;;;1036046;28;20736;-78
2022/11/02 01:34:51;;;;;;;19.70;5.97;;;;;;;;;;1034666;28;20026;-78
2022/11/02 01:35:22;;;;;;;14.25;5.57;;;;;;;;;;1034227;28;20025;-77
2022/11/02 01:35:54;;;;;;;24.00;5.68;;;;;;;;;;1034284;28;20156;-77
2022/11/02 01:36:25;;;;;;;10.68;3.83;;;;;;;;;;1036439;28;20116;-77
2022/11/02 01:36:56;;;;;;;22.58;4.68;;;;;;;;;;1036995;28;20030;-77
2022/11/02 01:37:27;;;;;;;8.82;3.45;;;;;;;;;;1035597;28;20030;-77
2022/11/02 01:38:00;;;;;;;10.00;2.78;;;;;;;;;;1034006;28;20068;-76
2022/11/02 01:38:36;;;;;;;5.60;2.30;;;;;;;;;;1034097;28;20057;-79
2022/11/02 01:39:07;;;;;;;8.32;2.63;;;;;;;;;;1030956;28;20101;-77
2022/11/02 01:39:38;;;;;;;5.95;2.20;;;;;;;;;;1031495;28;20048;-77
2022/11/02 01:40:09;;;;;;;8.23;3.03;;;;;;;;;;1033255;28;20360;-83
2022/11/02 01:40:39;;;;;;;7.20;2.88;;;;;;;;;;1035095;28;20647;-79
2022/11/02 01:41:11;;;;;;;7.72;2.58;;;;;;;;;;1036649;28;20036;-80
2022/11/02 01:41:42;;;;;;;8.30;3.15;;;;;;;;;;1039338;28;20033;-80
2022/11/02 01:42:17;;;;;;;10.20;2.42;;;;;;;;;;1040258;28;20436;-78
2022/11/02 01:42:48;;;;;;;5.97;2.45;;;;;;;;;;1041113;28;20037;-79
2022/11/02 01:43:19;;;;;;;7.20;2.92;;;;;;;;;;1037215;28;20021;-81
2022/11/02 01:43:52;;;;;;;9.00;2.47;;;;;;;;;;1038703;28;20107;-80
2022/11/02 01:44:30;;;;;;;7.50;2.78;;;;;;;;;;1037326;28;20029;-81
2022/11/02 01:45:01;;;;;;;22.13;2.95;;;;;;;;;;1035727;28;20026;-80
2022/11/02 01:45:32;;;;;;;3.97;2.20;;;;;;;;;;1038245;28;20053;-80
2022/11/02 01:46:11;;;;;;;4.10;2.17;;;;;;;;;;1031760;28;20273;-79
2022/11/02 01:46:45;;;;;;;14.50;2.67;;;;;;;;;;1031625;28;20525;-79
2022/11/02 01:47:27;;;;;;;9.02;2.78;;;;;;;;;;1033836;28;20426;-79
2022/11/02 01:48:01;;;;;;;5.00;2.03;;;;;;;;;;1037806;28;20061;-79
2022/11/02 01:48:35;;;;;;;10.57;3.15;;;;;;;;;;1037533;28;20510;-78
2022/11/02 01:49:16;;;;;;;4.70;2.30;;;;;;;;;;1033810;28;20158;-80
2022/11/02 01:49:49;;;;;;;4.45;1.80;;;;;;;;;;1032262;28;21086;-79
2022/11/02 01:50:23;;;;;;;19.75;3.22;;;;;;;;;;1033617;28;20366;-79
2022/11/02 01:50:59;;;;;;;4.90;2.53;;;;;;;;;;1033060;28;20032;-80
2022/11/02 01:51:33;;;;;;;4.28;2.17;;;;;;;;;;1029988;28;20117;-80
2022/11/02 01:52:05;;;;;;;5.78;2.88;;;;;;;;;;1029683;28;20073;-80
2022/11/02 01:52:38;;;;;;;7.78;2.42;;;;;;;;;;1033459;28;20037;-79
2022/11/02 01:53:10;;;;;;;6.72;2.47;;;;;;;;;;1036312;28;20407;-80
2022/11/02 01:53:45;;;;;;;9.60;2.85;;;;;;;;;;1031753;28;20507;-80
2022/11/02 01:54:22;;;;;;;4.93;1.80;;;;;;;;;;1029232;28;20030;-80
2022/11/02 01:54:58;;;;;;;9.68;3.38;;;;;;;;;;1033175;28;20041;-80
2022/11/02 01:55:30;;;;;;;9.10;3.15;;;;;;;;;;1036305;28;20029;-80
2022/11/02 01:56:01;;;;;;;9.20;2.47;;;;;;;;;;1035181;28;20034;-79
2022/11/02 01:56:34;;;;;;;6.38;2.95;;;;;;;;;;1037951;28;20037;-80
2022/11/02 01:57:07;;;;;;;8.35;2.25;;;;;;;;;;1036620;28;20060;-81
2022/11/02 01:57:40;;;;;;;9.05;2.50;;;;;;;;;;1037058;28;20052;-81
2022/11/02 01:58:11;;;;;;;13.18;3.47;;;;;;;;;;1042424;28;20064;-79
2022/11/02 01:58:46;;;;;;;8.85;3.75;;;;;;;;;;1039114;28;20029;-80
2022/11/02 01:59:20;;;;;;;3.63;2.17;;;;;;;;;;1036744;28;20029;-81
2022/11/02 02:00:02;;;;;;;9.52;3.50;;;;;;;;;;1039333;28;20029;-81
2022/11/02 02:00:39;;;;;;;7.10;3.38;;;;;;;;;;1036753;28;20093;-81
2022/11/02 02:01:11;;;;;;;14.38;4.28;;;;;;;;;;1035112;28;20045;-81
2022/11/02 02:01:42;;;;;;;9.30;4.18;;;;;;;;;;1032125;28;20418;-82
2022/11/02 02:02:15;;;;;;;8.43;4.03;;;;;;;;;;1032580;28;20018;-82
2022/11/02 02:02:59;;;;;;;12.52;3.92;;;;;;;;;;1035510;28;20030;-82
2022/11/02 02:03:32;;;;;;;9.98;3.90;;;;;;;;;;1037291;28;20021;-81
2022/11/02 02:04:03;;;;;;;7.60;3.22;;;;;;;;;;1038054;28;20125;-81
2022/11/02 02:04:34;;;;;;;10.05;5.15;;;;;;;;;;1036739;28;20481;-81
2022/11/02 02:05:09;;;;;;;12.27;4.15;;;;;;;;;;1038370;28;20021;-82
2022/11/02 02:05:41;;;;;;;13.07;4.03;;;;;;;;;;1034248;28;20022;-82
2022/11/02 02:06:14;;;;;;;13.27;3.70;;;;;;;;;;1033830;28;20018;-82
2022/11/02 02:06:45;;;;;;;14.98;4.78;;;;;;;;;;1035698;28;20062;-81
2022/11/02 02:07:16;;;;;;;12.77;4.10;;;;;;;;;;1035325;28;20022;-81
2022/11/02 02:07:47;;;;;;;11.63;4.43;;;;;;;;;;1039071;28;20024;-82
2022/11/02 02:08:57;;;;;;;;;;;;;;;;;;1169960;23;20030;-82
2022/11/02 02:09:28;;;;;;;12.80;4.57;;;;;;;;;;1081086;22;20007;-81
2022/11/02 02:09:59;;;;;;;11.95;3.28;;;;;;;;;;1041933;22;20026;-82
2022/11/02 02:10:31;;;;;;;16.30;4.28;;;;;;;;;;1030706;28;20407;-81
2022/11/02 02:11:04;;;;;;;15.73;3.90;;;;;;;;;;1033273;28;20030;-81
2022/11/02 02:12:15;;;;;;;;;;;;;;;;;;1080328;22;20054;-80
2022/11/02 02:12:46;;;;;;;16.77;3.75;;;;;;;;;;1034179;28;19920;-80
2022/11/02 02:13:17;;;;;;;20.42;4.93;;;;;;;;;;1028337;28;20034;-80
2022/11/02 02:13:48;;;;;;;13.18;4.22;;;;;;;;;;1030375;28;20054;-80
2022/11/02 02:14:19;;;;;;;13.73;4.20;;;;;;;;;;1025969;28;20027;-79
2022/11/02 02:14:51;;;;;;;14.27;5.30;;;;;;;;;;1027041;28;20033;-79
2022/11/02 02:15:23;;;;;;;32.85;7.00;;;;;;;;;;1029311;28;20141;-79
2022/11/02 02:16:00;;;;;;;18.88;5.60;;;;;;;;;;1024540;28;20071;-79
2022/11/02 02:16:36;;;;;;;18.63;4.78;;;;;;;;;;1021640;28;20034;-79
2022/11/02 02:17:13;;;;;;;23.90;5.03;;;;;;;;;;1024879;28;20436;-80
2022/11/02 02:18:15;;;;;;;32.40;7.38;;;;;;;;;;1028118;28;20141;-79
2022/11/02 02:18:52;;;;;;;17.40;5.45;;;;;;;;;;1021881;29;20038;-80
2022/11/02 02:19:29;;;;;;;10.93;5.57;;;;;;;;;;1021099;29;20053;-80
2022/11/02 02:20:03;;;;;;;14.60;5.70;;;;;;;;;;1027199;28;20038;-81
2022/11/02 02:20:34;;;;;;;29.02;7.00;;;;;;;;;;1028894;28;20068;-80
2022/11/02 02:21:23;;;;;;;17.00;6.78;;;;;;;;;;1029852;28;20456;-80
2022/11/02 02:22:13;;;;;;;29.40;7.38;;;;;;;;;;1030403;28;20574;-81
2022/11/02 02:22:53;;;;;;;12.70;5.57;;;;;;;;;;1030558;28;20374;-79
2022/11/02 02:23:32;;;;;;;10.07;5.07;;;;;;;;;;1026513;28;20500;-81
2022/11/02 02:24:14;;;;;;;31.63;6.38;;;;;;;;;;1029372;28;20120;-80
2022/11/02 02:24:50;;;;;;;27.55;6.05;;;;;;;;;;1027009;28;20042;-82
2022/11/02 02:25:30;;;;;;;24.70;7.50;;;;;;;;;;1027864;28;20026;-80
2022/11/02 02:26:19;;;;;;;21.13;7.50;;;;;;;;;;1029270;28;20448;-81
2022/11/02 02:26:58;;;;;;;33.92;7.88;;;;;;;;;;1033814;28;20296;-79
2022/11/02 02:27:34;;;;;;;52.20;10.02;;;;;;;;;;1033057;28;20425;-79
2022/11/02 02:28:05;;;;;;;20.10;7.60;;;;;;;;;;1029781;28;20035;-80
2022/11/02 02:28:39;;;;;;;16.25;7.30;;;;;;;;;;1027222;28;20030;-78
2022/11/02 02:29:21;;;;;;;21.55;8.00;;;;;;;;;;1025675;28;20121;-81
2022/11/02 02:29:57;;;;;;;25.63;8.50;;;;;;;;;;1025255;28;20023;-82
2022/11/02 02:30:30;;;;;;;18.40;6.47;;;;;;;;;;1028553;28;20441;-82
2022/11/02 02:31:40;;;;;;;;;;;;;;;;;;1044082;22;19925;-81
2022/11/02 02:32:35;;;;;;;37.10;6.68;;;;;;;;;;1034770;28;19917;-82
2022/11/02 02:33:12;;;;;;;28.13;7.28;;;;;;;;;;1032710;28;20018;-81
2022/11/02 02:33:45;;;;;;;24.85;6.72;;;;;;;;;;1033825;28;20475;-81
2022/11/02 02:34:21;;;;;;;23.42;8.00;;;;;;;;;;1033447;28;20026;-80
2022/11/02 02:35:01;;;;;;;28.45;8.18;;;;;;;;;;1036392;28;20433;-82
2022/11/02 02:35:33;;;;;;;27.98;6.30;;;;;;;;;;1034828;28;20026;-81
2022/11/02 02:36:36;;;;;;;28.88;7.35;;;;;;;;;;1024617;28;20354;-82
2022/11/02 02:37:35;;;;;;;17.77;7.47;;;;;;;;;;1033327;28;20073;-82
2022/11/02 02:38:14;;;;;;;17.35;7.13;;;;;;;;;;1032089;28;20940;-81
2022/11/02 02:38:56;;;;;;;19.43;7.57;;;;;;;;;;1030911;28;20040;-81
2022/11/02 02:39:35;;;;;;;27.77;7.55;;;;;;;;;;1029359;28;20329;-82
2022/11/02 02:40:22;;;;;;;19.92;7.45;;;;;;;;;;1026803;28;20027;-83
2022/11/02 02:40:59;;;;;;;21.60;6.78;;;;;;;;;;1039079;23;20071;-80
2022/11/02 02:41:29;;;;;;;19.90;7.78;;;;;;;;;;1028710;28;20022;-82
2022/11/02 02:42:06;;;;;;;35.05;8.82;;;;;;;;;;1028109;28;20062;-82
2022/11/02 02:42:46;;;;;;;22.48;9.35;;;;;;;;;;1023888;28;20023;-82
2022/11/02 02:43:25;;;;;;;21.38;7.35;;;;;;;;;;1026999;28;20086;-80
2022/11/02 02:44:00;;;;;;;16.35;6.93;;;;;;;;;;1025457;28;20026;-80
2022/11/02 02:44:33;;;;;;;15.77;7.38;;;;;;;;;;1027432;28;20022;-81
2022/11/02 02:45:13;;;;;;;26.95;8.15;;;;;;;;;;1029703;28;20028;-80
2022/11/02 02:45:49;;;;;;;22.02;5.20;;;;;;;;;;1026712;28;20088;-80
2022/11/02 02:46:30;;;;;;;29.10;8.80;;;;;;;;;;1026213;28;20097;-81
2022/11/02 02:47:09;;;;;;;21.92;6.97;;;;;;;;;;1026038;28;20049;-78
2022/11/02 02:47:49;;;;;;;27.08;9.20;;;;;;;;;;1029391;28;20529;-80
2022/11/02 02:48:28;;;;;;;23.13;9.40;;;;;;;;;;1023302;28;20023;-82
2022/11/02 02:49:01;;;;;;;31.80;10.18;;;;;;;;;;1019073;29;20031;-80
2022/11/02 02:49:38;;;;;;;24.50;6.65;;;;;;;;;;1016495;29;20152;-81
2022/11/02 02:50:17;;;;;;;18.83;6.78;;;;;;;;;;1018843;29;20028;-81
2022/11/02 02:50:53;;;;;;;19.20;5.97;;;;;;;;;;1021990;28;20401;-79
2022/11/02 02:51:57;;;;;;;52.45;9.73;;;;;;;;;;1072447;23;20138;-79
2022/11/02 02:52:32;;;;;;;27.45;8.93;;;;;;;;;;1025847;28;20030;-79
2022/11/02 02:53:05;;;;;;;22.15;7.97;;;;;;;;;;1024890;28;20065;-79
2022/11/02 02:53:38;;;;;;;16.83;6.45;;;;;;;;;;1026827;28;20026;-78
2022/11/02 02:54:32;;;;;;;24.45;5.82;;;;;;;;;;1025062;28;20039;-77
2022/11/02 02:55:04;;;;;;;26.10;6.00;;;;;;;;;;1022742;28;20566;-77
2022/11/02 02:55:37;;;;;;;13.63;6.85;;;;;;;;;;1024166;28;20570;-76
2022/11/02 02:56:09;;;;;;;23.80;8.18;;;;;;;;;;1020461;29;20042;-77
2022/11/02 02:56:46;;;;;;;26.80;8.82;;;;;;;;;;1022019;29;20027;-79
2022/11/02 02:57:18;;;;;;;24.67;7.32;;;;;;;;;;1019215;29;20045;-80
2022/11/02 02:57:49;;;;;;;20.00;8.05;;;;;;;;;;1021615;28;20031;-79
2022/11/02 02:58:31;;;;;;;15.48;7.15;;;;;;;;;;1020530;29;20023;-79
2022/11/02 02:59:04;;;;;;;17.65;7.38;;;;;;;;;;1021244;29;20019;-82
2022/11/02 02:59:38;;;;;;;21.92;9.43;;;;;;;;;;1022705;29;20515;-80
2022/11/02 03:00:13;;;;;;;21.98;6.70;;;;;;;;;;1024401;28;20027;-81
2022/11/02 03:00:44;;;;;;;21.92;8.70;;;;;;;;;;1025175;28;20609;-80
2022/11/02 03:01:17;;;;;;;15.05;5.88;;;;;;;;;;1066394;23;20070;-81
2022/11/02 03:01:48;;;;;;;20.23;8.27;;;;;;;;;;1027782;28;20048;-80
2022/11/02 03:02:27;;;;;;;27.58;8.70;;;;;;;;;;1036121;22;20012;-80
2022/11/02 03:03:00;;;;;;;19.92;9.38;;;;;;;;;;1025336;28;20031;-80
2022/11/02 03:03:32;;;;;;;25.15;8.75;;;;;;;;;;1148112;23;20030;-82
2022/11/02 03:04:33;;;;;;;14.60;8.00;;;;;;;;;;1079502;22;20057;-80
2022/11/02 03:05:22;;;;;;;15.65;7.10;;;;;;;;;;1044457;23;20022;-81
2022/11/02 03:05:58;;;;;;;24.33;8.63;;;;;;;;;;1031850;28;20049;-81
2022/11/02 03:06:30;;;;;;;15.20;6.35;;;;;;;;;;1068335;22;20047;-80
2022/11/02 03:07:01;;;;;;;22.23;7.03;;;;;;;;;;1036583;28;20067;-82
2022/11/02 03:07:33;;;;;;;27.08;6.95;;;;;;;;;;1031726;28;20136;-81
2022/11/02 03:08:09;;;;;;;25.23;8.43;;;;;;;;;;1031892;28;20496;-81
2022/11/02 03:08:42;;;;;;;22.15;8.18;;;;;;;;;;1030290;28;20552;-81
2022/11/02 03:09:32;;;;;;;26.33;7.72;;;;;;;;;;1031746;28;20101;-80
2022/11/02 03:10:10;;;;;;;24.83;7.20;;;;;;;;;;1030685;28;20105;-81
2022/11/02 03:10:47;;;;;;;26.33;7.68;;;;;;;;;;1028484;28;20038;-81
2022/11/02 03:12:44;;;;;;;15.00;5.78;;;;;;;;;;1070499;22;20076;-81
2022/11/02 03:14:12;;;;;;;30.30;7.53;;;;;;;;;;1067597;23;20066;-81
2022/11/02 03:14:57;;;;;;;20.52;7.82;;;;;;;;;;1023452;28;20138;-81
2022/11/02 03:15:34;;;;;;;26.42;8.52;;;;;;;;;;1028969;28;20113;-81
2022/11/02 03:16:08;;;;;;;16.58;7.57;;;;;;;;;;1032250;28;20023;-80
2022/11/02 03:16:42;;;;;;;34.20;7.30;;;;;;;;;;1031156;28;20582;-81
2022/11/02 03:17:21;;;;;;;27.92;9.77;;;;;;;;;;1029732;28;20399;-81
2022/11/02 03:18:00;;;;;;;51.45;10.15;;;;;;;;;;1030442;28;20075;-80
2022/11/02 03:18:37;;;;;;;38.22;9.77;;;;;;;;;;1029414;28;20077;-82
2022/11/02 03:19:16;;;;;;;28.30;8.65;;;;;;;;;;1027268;28;20374;-80
2022/11/02 03:19:54;;;;;;;31.40;10.13;;;;;;;;;;1036348;23;20094;-81
2022/11/02 03:20:29;;;;;;;42.25;8.93;;;;;;;;;;1027959;28;20030;-80
2022/11/02 03:21:03;;;;;;;46.00;9.60;;;;;;;;;;1028771;28;20023;-79
2022/11/02 03:22:13;;;;;;;;;;;;;;;;;;1068956;22;20069;-81
2022/11/02 03:22:53;;;;;;;42.20;10.20;;;;;;;;;;1030485;28;19924;-81
2022/11/02 03:23:27;;;;;;;45.28;9.63;;;;;;;;;;1150440;22;20017;-80
2022/11/02 03:24:27;;;;;;;32.20;9.05;;;;;;;;;;1036426;28;20040;-83